createdAt,value
2019-01-23T00:00:16.151Z,99.90
2019-01-23T00:02:44.920Z,99.90
2019-01-23T00:05:13.682Z,99.90
2019-01-23T00:07:42.350Z,99.90
2019-01-23T00:10:11.206Z,99.90
2019-01-23T00:12:39.830Z,99.90
2019-01-23T00:15:08.636Z,99.90
2019-01-23T00:17:37.325Z,99.90
2019-01-23T00:20:08.152Z,99.90
2019-01-23T00:22:36.789Z,99.90
2019-01-23T00:25:08.486Z,99.90
2019-01-23T00:27:37.184Z,99.90
2019-01-23T00:30:14.032Z,99.90
2019-01-23T00:32:42.736Z,99.90
2019-01-23T00:35:11.584Z,99.90
2019-01-23T00:37:40.337Z,99.90
2019-01-23T00:40:12.242Z,99.90
2019-01-23T00:42:40.933Z,99.90
2019-01-23T00:45:12.475Z,99.90
2019-01-23T00:47:41.163Z,99.90
2019-01-23T00:50:11.208Z,99.90
2019-01-23T00:52:39.881Z,99.90
2019-01-23T00:55:11.715Z,99.90
2019-01-23T00:57:40.374Z,99.90
2019-01-23T01:00:18.176Z,99.90
2019-01-23T01:02:47.244Z,99.90
2019-01-23T01:05:17.174Z,99.90
2019-01-23T01:07:45.969Z,99.90
2019-01-23T01:10:17.702Z,99.90
2019-01-23T01:12:46.561Z,99.90
2019-01-23T01:15:15.694Z,99.90
2019-01-23T01:17:44.461Z,99.90
2019-01-23T01:20:16.746Z,99.90
2019-01-23T01:22:45.537Z,99.90
2019-01-23T01:25:16.726Z,99.90
2019-01-23T01:27:45.458Z,99.90
2019-01-23T01:30:17.124Z,99.90
2019-01-23T01:32:45.920Z,99.90
2019-01-23T01:35:14.752Z,99.90
2019-01-23T01:37:43.544Z,99.90
2019-01-23T01:40:14.567Z,99.90
2019-01-23T01:42:43.360Z,99.90
2019-01-23T01:45:13.608Z,99.90
2019-01-23T01:47:42.357Z,99.90
2019-01-23T01:50:16.862Z,99.90
2019-01-23T01:52:45.588Z,99.90
2019-01-23T01:55:14.463Z,99.90
2019-01-23T01:57:43.124Z,99.90
2019-01-23T02:00:16.820Z,99.90
2019-01-23T02:02:45.539Z,99.90
2019-01-23T02:05:14.510Z,99.90
2019-01-23T02:07:43.238Z,99.90
2019-01-23T02:10:17.319Z,99.90
2019-01-23T02:12:46.051Z,99.90
2019-01-23T02:15:15.835Z,99.90
2019-01-23T02:17:44.561Z,99.90
2019-01-23T02:20:18.561Z,99.90
2019-01-23T02:22:47.330Z,99.90
2019-01-23T02:25:16.133Z,99.90
2019-01-23T02:27:46.025Z,99.90
2019-01-23T02:30:19.752Z,99.90
2019-01-23T02:32:48.478Z,99.90
2019-01-23T02:35:17.247Z,99.90
2019-01-23T02:37:45.858Z,99.90
2019-01-23T02:40:17.354Z,99.90
2019-01-23T02:42:46.119Z,99.90
2019-01-23T02:45:15.850Z,99.90
2019-01-23T02:47:44.624Z,99.90
2019-01-23T02:50:14.097Z,99.90
2019-01-23T02:52:42.868Z,99.90
2019-01-23T02:55:12.296Z,99.90
2019-01-23T02:57:41.084Z,99.90
2019-01-23T03:00:15.554Z,99.90
2019-01-23T03:02:44.722Z,99.90
2019-01-23T03:05:15.640Z,99.90
2019-01-23T03:07:44.424Z,99.90
2019-01-23T03:10:17.835Z,99.90
2019-01-23T03:12:46.666Z,99.90
2019-01-23T03:15:17.223Z,99.90
2019-01-23T03:17:45.926Z,99.90
2019-01-23T03:20:16.353Z,99.90
2019-01-23T03:22:45.126Z,99.90
2019-01-23T03:25:15.079Z,99.90
2019-01-23T03:27:43.834Z,99.90
2019-01-23T03:30:15.318Z,99.90
2019-01-23T03:32:44.048Z,99.90
2019-01-23T03:35:12.786Z,99.90
2019-01-23T03:37:41.475Z,99.90
2019-01-23T03:40:13.370Z,99.90
2019-01-23T03:42:41.955Z,99.90
2019-01-23T03:45:12.143Z,99.90
2019-01-23T03:47:40.870Z,99.90
2019-01-23T03:50:12.335Z,99.90
2019-01-23T03:52:41.121Z,99.90
2019-01-23T03:55:11.418Z,99.90
2019-01-23T03:57:40.188Z,99.90
2019-01-23T04:00:14.707Z,99.90
2019-01-23T04:02:43.521Z,99.90
2019-01-23T04:05:12.243Z,99.90
2019-01-23T04:07:40.894Z,99.90
2019-01-23T04:10:14.746Z,99.90
2019-01-23T04:12:43.476Z,99.90
2019-01-23T04:15:16.883Z,99.90
2019-01-23T04:17:45.598Z,99.90
2019-01-23T04:20:19.517Z,99.90
2019-01-23T04:22:48.265Z,99.90
2019-01-23T04:25:17.107Z,99.90
2019-01-23T04:27:45.737Z,99.90
2019-01-23T04:30:24.629Z,99.90
2019-01-23T04:32:53.343Z,99.90
2019-01-23T04:35:22.180Z,99.90
2019-01-23T04:37:50.990Z,99.90
2019-01-23T04:40:19.721Z,99.90
2019-01-23T04:42:48.490Z,99.90
2019-01-23T04:45:17.724Z,99.90
2019-01-23T04:47:46.458Z,99.90
2019-01-23T04:50:17.137Z,99.90
2019-01-23T04:52:59.937Z,99.90
2019-01-23T04:55:28.711Z,99.90
2019-01-23T04:57:57.427Z,99.90
2019-01-23T05:00:27.723Z,99.90
2019-01-23T05:02:56.441Z,99.90
2019-01-23T05:05:25.189Z,99.90
2019-01-23T05:07:53.992Z,99.90
2019-01-23T05:10:22.747Z,99.90
2019-01-23T05:12:51.518Z,99.90
2019-01-23T05:15:20.246Z,99.90
2019-01-23T05:17:49.008Z,99.90
2019-01-23T05:20:17.781Z,99.90
2019-01-23T05:22:46.495Z,99.90
2019-01-23T05:25:15.225Z,99.90
2019-01-23T05:27:43.993Z,99.90
2019-01-23T05:30:18.266Z,99.90
2019-01-23T05:32:46.926Z,99.90
2019-01-23T05:35:15.649Z,99.90
2019-01-23T05:37:44.337Z,99.90
2019-01-23T05:40:13.522Z,99.90
2019-01-23T05:42:42.215Z,99.90
2019-01-23T05:45:13.277Z,99.90
2019-01-23T05:47:42.012Z,99.90
2019-01-23T05:50:16.250Z,99.90
2019-01-23T05:52:44.897Z,99.90
2019-01-23T05:55:14.428Z,99.90
2019-01-23T05:57:43.198Z,99.90
2019-01-23T06:00:15.040Z,99.90
2019-01-23T06:02:43.775Z,99.90
2019-01-23T06:05:13.106Z,99.90
2019-01-23T06:07:41.737Z,99.90
2019-01-23T06:10:11.330Z,99.90
2019-01-23T06:12:40.129Z,99.90
2019-01-23T06:15:16.556Z,99.90
2019-01-23T06:17:45.254Z,99.90
2019-01-23T06:20:16.639Z,99.90
2019-01-23T06:22:45.480Z,99.90
2019-01-23T06:25:14.351Z,99.90
2019-01-23T06:27:43.109Z,99.90
2019-01-23T06:30:15.119Z,99.90
2019-01-23T06:32:43.788Z,99.90
2019-01-23T06:35:12.650Z,99.90
2019-01-23T06:37:41.404Z,99.90
2019-01-23T06:40:12.744Z,99.90
2019-01-23T06:42:41.448Z,99.90
2019-01-23T06:45:12.389Z,99.90
2019-01-23T06:47:41.247Z,99.90
2019-01-23T06:50:15.133Z,99.90
2019-01-23T06:52:43.785Z,99.90
2019-01-23T06:55:12.580Z,99.90
2019-01-23T06:57:41.185Z,99.90
2019-01-23T07:00:17.326Z,99.90
2019-01-23T07:02:46.372Z,99.90
2019-01-23T07:05:15.465Z,99.90
2019-01-23T07:07:44.130Z,99.90
2019-01-23T07:10:18.129Z,99.90
2019-01-23T07:12:47.751Z,99.90
2019-01-23T07:15:16.553Z,99.90
2019-01-23T07:17:45.290Z,99.90
2019-01-23T07:20:22.405Z,99.90
2019-01-23T07:22:50.994Z,99.90
2019-01-23T07:25:20.068Z,99.90
2019-01-23T07:27:48.761Z,99.90
2019-01-23T07:30:24.201Z,99.90
2019-01-23T07:32:50.756Z,99.90
2019-01-23T07:35:19.466Z,99.90
2019-01-23T07:37:48.140Z,99.90
2019-01-23T07:40:16.869Z,99.90
2019-01-23T07:42:45.592Z,99.90
2019-01-23T07:45:19.693Z,99.90
2019-01-23T07:47:48.409Z,99.90
2019-01-23T07:50:17.297Z,99.90
2019-01-23T07:52:46.658Z,99.90
2019-01-23T07:55:17.485Z,99.90
2019-01-23T07:57:46.275Z,99.90
2019-01-23T08:00:20.467Z,99.90
2019-01-23T08:02:49.228Z,99.90
2019-01-23T08:05:20.565Z,99.90
2019-01-23T08:07:49.343Z,99.90
2019-01-23T08:10:20.469Z,99.90
2019-01-23T08:12:49.294Z,99.90
2019-01-23T08:15:23.646Z,99.90
2019-01-23T08:17:52.337Z,99.90
2019-01-23T08:20:23.137Z,99.90
2019-01-23T08:22:51.831Z,99.90
2019-01-23T08:25:20.530Z,99.90
2019-01-23T08:27:49.189Z,99.90
2019-01-23T08:30:20.323Z,99.90
2019-01-23T08:32:49.087Z,99.90
2019-01-23T08:35:19.056Z,99.90
2019-01-23T08:37:47.820Z,99.90
2019-01-23T08:40:17.955Z,99.90
2019-01-23T08:42:46.741Z,99.90
2019-01-23T08:45:15.837Z,99.90
2019-01-23T08:47:44.615Z,99.90
2019-01-23T08:50:24.962Z,99.90
2019-01-23T08:52:53.624Z,99.90
2019-01-23T08:55:23.017Z,99.90
2019-01-23T08:57:51.773Z,99.90
2019-01-23T09:00:20.536Z,99.90
2019-01-23T09:02:49.167Z,99.90
2019-01-23T09:05:17.893Z,99.90
2019-01-23T09:07:46.656Z,99.90
2019-01-23T09:10:18.326Z,99.90
2019-01-23T09:12:46.942Z,99.90
2019-01-23T09:15:16.860Z,99.90
2019-01-23T09:17:45.636Z,99.90
2019-01-23T09:20:21.738Z,99.90
2019-01-23T09:22:50.535Z,99.90
2019-01-23T09:25:26.740Z,99.90
2019-01-23T09:27:55.531Z,99.90
2019-01-23T09:30:27.132Z,99.90
2019-01-23T09:33:07.638Z,99.90
2019-01-23T09:35:54.532Z,99.90
2019-01-23T09:38:38.434Z,99.90
2019-01-23T09:41:13.018Z,99.90
2019-01-23T09:43:59.859Z,99.90
2019-01-23T09:46:49.654Z,99.90
2019-01-23T09:49:27.360Z,99.90
2019-01-23T09:52:23.398Z,99.90
2019-01-23T09:54:52.043Z,99.90
2019-01-23T09:57:20.718Z,99.90
2019-01-23T09:59:49.480Z,99.90
2019-01-23T10:02:18.112Z,99.70
2019-01-23T10:04:46.723Z,99.70
2019-01-23T10:07:15.371Z,99.60
2019-01-23T10:09:43.985Z,99.50
2019-01-23T10:12:12.603Z,99.50
2019-01-23T10:14:41.387Z,99.10
2019-01-23T10:17:10.069Z,99.10
2019-01-23T10:19:38.662Z,99.00
2019-01-23T10:22:07.454Z,98.80
2019-01-23T10:24:36.256Z,98.90
2019-01-23T10:27:04.970Z,98.60
2019-01-23T10:29:33.674Z,98.50
2019-01-23T10:32:02.332Z,98.70
2019-01-23T10:34:32.393Z,98.30
2019-01-23T10:37:01.282Z,98.20
2019-01-23T10:39:29.930Z,98.10
2019-01-23T10:41:58.553Z,98.40
2019-01-23T10:44:27.208Z,98.40
2019-01-23T10:46:55.905Z,98.00
2019-01-23T10:49:24.557Z,97.40
2019-01-23T10:51:53.251Z,97.70
2019-01-23T10:54:21.905Z,98.20
2019-01-23T10:56:50.634Z,98.20
2019-01-23T10:59:19.334Z,98.20
2019-01-23T11:01:47.918Z,97.80
2019-01-23T11:04:16.597Z,97.90
2019-01-23T11:06:45.353Z,97.50
2019-01-23T11:09:14.194Z,97.70
2019-01-23T11:11:42.799Z,97.30
2019-01-23T11:14:11.527Z,97.60
2019-01-23T11:16:40.169Z,97.30
2019-01-23T11:19:08.858Z,97.20
2019-01-23T11:21:37.465Z,97.00
2019-01-23T11:24:06.247Z,96.70
2019-01-23T11:26:34.958Z,96.20
2019-01-23T11:29:03.717Z,96.30
2019-01-23T11:31:32.371Z,96.20
2019-01-23T11:34:01.084Z,96.30
2019-01-23T11:36:29.708Z,96.00
2019-01-23T11:38:58.364Z,96.20
2019-01-23T11:41:26.963Z,95.80
2019-01-23T11:43:55.583Z,95.20
2019-01-23T11:46:24.270Z,94.70
2019-01-23T11:48:53.003Z,94.50
2019-01-23T11:51:21.650Z,94.10
2019-01-23T11:53:50.318Z,94.20
2019-01-23T11:56:19.096Z,94.20
2019-01-23T11:58:47.685Z,93.50
2019-01-23T12:01:16.450Z,93.10
2019-01-23T12:03:45.069Z,92.90
2019-01-23T12:06:13.717Z,93.20
2019-01-23T12:08:42.419Z,93.80
2019-01-23T12:11:11.084Z,94.00
2019-01-23T12:13:39.861Z,93.30
2019-01-23T12:16:08.507Z,91.90
2019-01-23T12:18:37.215Z,91.70
2019-01-23T12:21:05.935Z,90.00
2019-01-23T12:23:34.616Z,88.90
2019-01-23T12:26:03.228Z,86.50
2019-01-23T12:28:31.920Z,86.50
2019-01-23T12:31:00.577Z,87.00
2019-01-23T12:33:29.287Z,86.40
2019-01-23T12:35:57.943Z,87.60
2019-01-23T12:38:26.514Z,87.20
2019-01-23T12:40:55.217Z,90.00
2019-01-23T12:43:23.980Z,89.70
2019-01-23T12:45:52.561Z,90.40
2019-01-23T12:48:21.326Z,91.40
2019-01-23T12:50:50.049Z,91.80
2019-01-23T12:53:18.682Z,91.90
2019-01-23T12:55:47.262Z,92.20
2019-01-23T12:58:15.975Z,91.40
2019-01-23T13:00:44.845Z,90.70
2019-01-23T13:03:13.610Z,90.70
2019-01-23T13:05:42.329Z,90.40
2019-01-23T13:08:11.122Z,90.40
2019-01-23T13:10:39.696Z,89.50
2019-01-23T13:13:08.449Z,89.40
2019-01-23T13:15:37.173Z,90.00
2019-01-23T13:18:05.967Z,90.80
2019-01-23T13:20:34.684Z,90.70
2019-01-23T13:23:03.325Z,91.50
2019-01-23T13:25:31.931Z,91.10
2019-01-23T13:28:02.086Z,91.00
2019-01-23T13:30:30.792Z,90.70
2019-01-23T13:32:59.532Z,91.10
2019-01-23T13:35:31.322Z,91.20
2019-01-23T13:38:00.379Z,91.70
2019-01-23T13:40:34.417Z,91.20
2019-01-23T13:43:03.664Z,90.90
2019-01-23T13:45:32.433Z,91.20
2019-01-23T13:48:01.685Z,90.70
2019-01-23T13:50:30.369Z,91.20
2019-01-23T13:52:59.236Z,91.40
2019-01-23T13:55:28.029Z,91.90
2019-01-23T13:57:56.739Z,92.70
2019-01-23T14:00:31.217Z,92.70
2019-01-23T14:03:00.046Z,92.80
2019-01-23T14:05:28.801Z,92.00
2019-01-23T14:07:57.565Z,91.90
2019-01-23T14:10:26.590Z,91.00
2019-01-23T14:12:55.733Z,91.50
2019-01-23T14:15:33.430Z,92.10
2019-01-23T14:18:02.257Z,92.00
2019-01-23T14:20:30.931Z,92.10
2019-01-23T14:22:59.804Z,93.00
2019-01-23T14:25:28.588Z,93.20
2019-01-23T14:27:57.204Z,93.80
2019-01-23T14:30:34.073Z,94.10
2019-01-23T14:33:02.818Z,93.70
2019-01-23T14:35:32.170Z,93.50
2019-01-23T14:38:01.106Z,93.50
2019-01-23T14:40:29.893Z,93.30
2019-01-23T14:42:58.719Z,94.20
2019-01-23T14:45:28.789Z,93.70
2019-01-23T14:47:57.609Z,93.70
2019-01-23T14:50:26.557Z,94.20
2019-01-23T14:52:55.489Z,94.30
2019-01-23T14:55:24.556Z,94.50
2019-01-23T14:57:53.348Z,93.60
2019-01-23T15:00:27.930Z,94.20
2019-01-23T15:02:57.093Z,94.50
2019-01-23T15:05:25.983Z,94.10
2019-01-23T15:07:54.806Z,94.60
2019-01-23T15:10:26.265Z,94.00
2019-01-23T15:12:55.497Z,94.30
2019-01-23T15:15:24.453Z,94.50
2019-01-23T15:17:53.780Z,94.10
2019-01-23T15:20:56.599Z,94.30
2019-01-23T15:23:25.266Z,94.50
2019-01-23T15:25:53.988Z,94.70
2019-01-23T15:28:22.777Z,94.80
2019-01-23T15:30:51.609Z,94.90
2019-01-23T15:33:20.331Z,95.80
2019-01-23T15:35:48.942Z,95.40
2019-01-23T15:38:17.827Z,95.20
2019-01-23T15:40:46.605Z,95.30
2019-01-23T15:43:15.318Z,95.20
2019-01-23T15:45:44.088Z,95.70
2019-01-23T15:48:13.107Z,95.60
2019-01-23T15:50:42.097Z,95.40
2019-01-23T15:53:11.537Z,96.00
2019-01-23T15:55:40.881Z,95.50
2019-01-23T15:58:10.233Z,96.30
2019-01-23T16:00:39.214Z,96.30
2019-01-23T16:03:08.321Z,95.50
2019-01-23T16:05:37.083Z,96.00
2019-01-23T16:08:06.025Z,96.10
2019-01-23T16:10:35.092Z,96.00
2019-01-23T16:13:03.847Z,96.30
2019-01-23T16:15:33.925Z,95.80
2019-01-23T16:18:02.856Z,96.20
2019-01-23T16:20:31.595Z,96.10
2019-01-23T16:23:00.459Z,96.10
2019-01-23T16:25:29.262Z,96.00
2019-01-23T16:27:57.920Z,96.70
2019-01-23T16:30:32.651Z,96.40
2019-01-23T16:33:01.401Z,96.50
2019-01-23T16:35:30.273Z,96.70
2019-01-23T16:37:59.114Z,96.50
2019-01-23T16:40:27.963Z,96.60
2019-01-23T16:42:56.766Z,96.90
2019-01-23T16:45:25.592Z,96.70
2019-01-23T16:47:54.819Z,96.50
2019-01-23T16:50:26.829Z,96.80
2019-01-23T16:52:56.338Z,96.90
2019-01-23T16:55:26.416Z,96.80
2019-01-23T16:57:56.466Z,97.10
2019-01-23T17:00:27.720Z,97.10
2019-01-23T17:02:57.474Z,97.10
2019-01-23T17:05:29.450Z,97.30
2019-01-23T17:08:00.086Z,96.90
2019-01-23T17:10:29.436Z,97.20
2019-01-23T17:12:58.554Z,96.50
2019-01-23T17:15:27.745Z,97.50
2019-01-23T17:17:56.538Z,96.90
2019-01-23T17:20:34.506Z,97.10
2019-01-23T17:23:03.420Z,97.00
2019-01-23T17:25:32.587Z,97.20
2019-01-23T17:28:02.721Z,97.00
2019-01-23T17:30:32.148Z,97.30
2019-01-23T17:33:01.417Z,97.60
2019-01-23T17:35:30.289Z,97.40
2019-01-23T17:37:59.593Z,97.70
2019-01-23T17:40:28.541Z,97.70
2019-01-23T17:42:57.640Z,97.80
2019-01-23T17:45:35.514Z,97.70
2019-01-23T17:48:06.227Z,97.70
2019-01-23T17:50:35.189Z,97.90
2019-01-23T17:53:04.171Z,98.00
2019-01-23T17:55:38.114Z,98.00
2019-01-23T17:58:09.490Z,97.90
2019-01-23T18:00:40.020Z,98.10
2019-01-23T18:03:12.523Z,98.40
2019-01-23T18:05:41.859Z,98.20
2019-01-23T18:08:11.305Z,98.40
2019-01-23T18:10:40.617Z,98.40
2019-01-23T18:13:10.066Z,98.20
2019-01-23T18:15:41.358Z,98.40
2019-01-23T18:18:12.880Z,98.10
2019-01-23T18:20:42.295Z,98.20
2019-01-23T18:23:11.769Z,98.40
2019-01-23T18:25:41.204Z,98.90
2019-01-23T18:28:10.571Z,98.60
2019-01-23T18:30:43.218Z,98.40
2019-01-23T18:33:15.610Z,98.30
2019-01-23T18:35:53.694Z,98.20
2019-01-23T18:38:41.329Z,98.30
2019-01-23T18:41:38.089Z,98.40
2019-01-23T18:44:28.719Z,98.10
2019-01-23T18:47:08.162Z,98.40
2019-01-23T18:49:57.117Z,98.10
2019-01-23T18:52:26.780Z,98.20
2019-01-23T18:54:56.667Z,98.20
2019-01-23T18:57:32.030Z,98.40
2019-01-23T19:00:01.709Z,98.40
2019-01-23T19:02:31.346Z,98.20
2019-01-23T19:05:01.340Z,98.30
2019-01-23T19:07:31.118Z,98.10
2019-01-23T19:10:01.085Z,98.30
2019-01-23T19:12:30.739Z,98.50
2019-01-23T19:15:00.337Z,98.10
2019-01-23T19:17:30.231Z,98.30
2019-01-23T19:19:59.957Z,98.20
2019-01-23T19:22:29.602Z,98.30
2019-01-23T19:24:59.074Z,98.40
2019-01-23T19:27:28.988Z,98.20
2019-01-23T19:29:58.828Z,98.40
2019-01-23T19:32:28.733Z,98.40
2019-01-23T19:34:58.659Z,98.80
2019-01-23T19:37:47.567Z,98.60
2019-01-23T19:40:17.933Z,98.60
2019-01-23T19:42:47.787Z,98.70
2019-01-23T19:45:19.760Z,98.80
2019-01-23T19:47:49.330Z,98.80
2019-01-23T19:50:18.968Z,99.30
2019-01-23T19:52:48.577Z,98.80
2019-01-23T19:55:18.702Z,98.90
2019-01-23T19:57:48.285Z,99.10
2019-01-23T20:00:20.417Z,99.00
2019-01-23T20:02:50.277Z,98.80
2019-01-23T20:05:23.113Z,98.60
2019-01-23T20:07:52.562Z,98.70
2019-01-23T20:10:24.198Z,98.60
2019-01-23T20:12:53.933Z,98.80
2019-01-23T20:15:23.636Z,98.80
2019-01-23T20:17:54.950Z,98.70
2019-01-23T20:20:24.608Z,98.70
2019-01-23T20:22:54.014Z,98.70
2019-01-23T20:25:26.125Z,98.40
2019-01-23T20:27:55.908Z,98.60
2019-01-23T20:30:34.155Z,98.60
2019-01-23T20:33:03.699Z,98.70
2019-01-23T20:35:33.054Z,98.60
2019-01-23T20:38:02.509Z,99.10
2019-01-23T20:40:31.762Z,98.90
2019-01-23T20:43:01.126Z,99.40
2019-01-23T20:45:30.765Z,99.30
2019-01-23T20:48:00.425Z,98.90
2019-01-23T20:50:31.325Z,98.90
2019-01-23T20:53:00.912Z,98.50
2019-01-23T20:55:30.329Z,99.00
2019-01-23T20:57:59.774Z,98.80
2019-01-23T21:00:31.413Z,98.90
2019-01-23T21:03:00.876Z,98.90
2019-01-23T21:05:30.422Z,98.90
2019-01-23T21:07:59.957Z,98.70
2019-01-23T21:10:29.413Z,99.20
2019-01-23T21:12:58.956Z,99.10
2019-01-23T21:15:30.199Z,99.20
2019-01-23T21:17:59.306Z,99.10
2019-01-23T21:20:29.788Z,99.00
2019-01-23T21:22:58.953Z,99.40
2019-01-23T21:25:28.341Z,99.50
2019-01-23T21:27:57.758Z,99.60
2019-01-23T21:30:28.277Z,99.40
2019-01-23T21:32:57.633Z,99.60
2019-01-23T21:35:27.181Z,99.70
2019-01-23T21:37:56.528Z,99.50
2019-01-23T21:40:30.587Z,99.80
2019-01-23T21:42:59.953Z,99.80
2019-01-23T21:45:29.933Z,99.70
2019-01-23T21:47:59.832Z,99.80
2019-01-23T21:50:28.849Z,99.90
2019-01-23T21:52:57.999Z,99.90
2019-01-23T21:55:27.023Z,99.90
2019-01-23T21:57:56.016Z,99.90
2019-01-23T22:00:30.968Z,99.90
2019-01-23T22:03:01.913Z,99.90
2019-01-23T22:05:30.977Z,99.90
2019-01-23T22:07:59.849Z,99.90
2019-01-23T22:10:28.558Z,99.90
2019-01-23T22:12:57.315Z,99.90
2019-01-23T22:15:28.709Z,99.90
2019-01-23T22:17:57.602Z,99.90
2019-01-23T22:20:26.950Z,99.90
2019-01-23T22:22:55.787Z,99.90
2019-01-23T22:25:25.818Z,99.90
2019-01-23T22:27:55.454Z,99.90
2019-01-23T22:30:26.747Z,99.90
2019-01-23T22:32:55.546Z,99.90
2019-01-23T22:35:24.383Z,99.90
2019-01-23T22:37:53.333Z,99.90
2019-01-23T22:40:22.369Z,99.90
2019-01-23T22:42:51.241Z,99.90
2019-01-23T22:45:21.952Z,99.90
2019-01-23T22:47:50.832Z,99.90
2019-01-23T22:50:27.487Z,99.90
2019-01-23T22:52:56.267Z,99.90
2019-01-23T22:55:25.146Z,99.90
2019-01-23T22:57:54.074Z,99.90
2019-01-23T23:00:50.758Z,99.90
2019-01-23T23:03:19.619Z,99.90
2019-01-23T23:05:48.331Z,99.90
2019-01-23T23:08:17.114Z,99.90
2019-01-23T23:10:45.856Z,99.90
2019-01-23T23:13:14.952Z,99.90
2019-01-23T23:15:44.017Z,99.90
2019-01-23T23:18:12.855Z,99.90
2019-01-23T23:20:41.648Z,99.90
2019-01-23T23:23:10.382Z,99.90
2019-01-23T23:25:39.117Z,99.90
2019-01-23T23:28:07.851Z,99.90
2019-01-23T23:30:36.626Z,99.90
2019-01-23T23:33:05.489Z,99.90
2019-01-23T23:35:34.261Z,99.90
2019-01-23T23:38:02.920Z,99.90
2019-01-23T23:40:31.620Z,99.90
2019-01-23T23:43:00.416Z,99.90
2019-01-23T23:45:29.186Z,99.90
2019-01-23T23:47:57.783Z,99.90
2019-01-23T23:50:26.436Z,99.90
2019-01-23T23:52:55.021Z,99.90
2019-01-23T23:55:23.689Z,99.90
2019-01-23T23:57:52.401Z,99.90
